Time;durP1;ratioP1;P1;durP2;ratioP2;P2;SDS_P1;SDS_P2;PMS_P1;PMS_P2;Temp;Humidity;BMP_temperature;BMP_pressure;BME280_temperature;BME280_humidity;BME280_pressure;Samples;Min_cycle;Max_cycle;Signal;HPM_P1;HPM_P2
2023/05/24 00:02:05;;;;;;;23.88;3.78;;;;;;;9.60;100.00;102466.53;5086179;28;20473;-46
2023/05/24 00:04:31;;;;;;;26.98;3.85;;;;;;;9.58;100.00;102467.66;5084888;28;20039;-45
2023/05/24 00:06:57;;;;;;;23.30;4.07;;;;;;;9.53;100.00;102464.53;5072471;28;20382;-44
2023/05/24 00:09:22;;;;;;;25.50;4.10;;;;;;;9.47;100.00;102459.72;5075427;28;20447;-45
2023/05/24 00:11:47;;;;;;;19.20;4.15;;;;;;;9.42;100.00;102465.47;5075423;28;20040;-45
2023/05/24 00:14:13;;;;;;;29.45;3.50;;;;;;;9.32;100.00;102467.28;5073033;28;20036;-45
2023/05/24 00:16:38;;;;;;;26.85;3.70;;;;;;;9.24;100.00;102462.56;5091928;28;20464;-46
2023/05/24 00:19:03;;;;;;;21.45;3.22;;;;;;;9.22;100.00;102468.09;5081919;28;20087;-46
2023/05/24 00:21:29;;;;;;;22.65;3.38;;;;;;;9.24;100.00;102459.88;5070767;28;20082;-45
2023/05/24 00:23:54;;;;;;;22.20;3.63;;;;;;;9.23;100.00;102463.56;5071725;28;20052;-47
2023/05/24 00:26:20;;;;;;;27.30;3.38;;;;;;;9.23;100.00;102463.56;5070167;28;20078;-47
2023/05/24 00:28:45;;;;;;;19.67;2.85;;;;;;;9.22;100.00;102468.09;5083254;28;20028;-46
2023/05/24 00:31:11;;;;;;;35.53;4.78;;;;;;;9.21;100.00;102457.47;5079307;28;20106;-44
2023/05/24 00:33:36;;;;;;;27.88;4.22;;;;;;;9.18;100.00;102465.78;5071817;28;20090;-45
2023/05/24 00:36:01;;;;;;;21.33;3.45;;;;;;;9.15;100.00;102468.75;5070795;28;20020;-48
2023/05/24 00:38:27;;;;;;;19.30;3.88;;;;;;;9.13;100.00;102471.56;5076672;28;20024;-49
2023/05/24 00:40:55;;;;;;;22.92;3.55;;;;;;;9.13;100.00;102471.56;5071401;28;20039;-47
2023/05/24 00:43:21;;;;;;;24.15;3.65;;;;;;;9.17;100.00;102474.84;5069985;28;20020;-48
2023/05/24 00:45:46;;;;;;;19.63;3.72;;;;;;;9.16;100.00;102462.38;5077919;28;20465;-44
2023/05/24 00:48:12;;;;;;;21.23;3.50;;;;;;;9.15;100.00;102466.06;5073698;28;20043;-48
2023/05/24 00:50:38;;;;;;;28.75;3.72;;;;;;;9.10;100.00;102462.91;5088497;28;20115;-48
2023/05/24 00:53:03;;;;;;;22.55;4.25;;;;;;;9.07;100.00;102468.56;5090856;28;20082;-46
2023/05/24 00:55:29;;;;;;;33.72;4.05;;;;;;;9.05;100.00;102467.84;5087834;28;20073;-46
2023/05/24 00:57:56;;;;;;;22.00;3.65;;;;;;;9.02;100.00;102456.38;5071587;28;20489;-45
2023/05/24 01:00:22;;;;;;;30.77;4.20;;;;;;;9.02;100.00;102450.16;5089827;28;20059;-47
2023/05/24 01:02:49;;;;;;;25.52;4.25;;;;;;;8.96;100.00;102453.38;5090740;28;20446;-47
2023/05/24 01:05:16;;;;;;;19.23;4.05;;;;;;;8.90;100.00;102462.81;5090571;28;20066;-45
2023/05/24 01:07:59;;;;;;;17.88;3.13;;;;;;;8.85;100.00;102458.81;5089724;28;20031;-46
2023/05/24 01:10:34;;;;;;;22.33;4.47;;;;;;;8.83;100.00;102460.78;5078598;28;20065;-46
2023/05/24 01:13:20;;;;;;;28.05;3.78;;;;;;;8.82;100.00;102465.31;5089926;28;20028;-46
2023/05/24 01:15:59;;;;;;;26.05;5.07;;;;;;;8.82;100.00;102464.44;5072994;28;20024;-50
2023/05/24 01:18:32;;;;;;;27.50;4.38;;;;;;;8.82;100.00;102469.78;5069746;28;20021;-44
2023/05/24 01:21:22;;;;;;;21.75;4.45;;;;;;;8.79;100.00;102478.97;5069333;28;20108;-46
2023/05/24 01:24:09;;;;;;;21.42;3.92;;;;;;;8.82;100.00;102485.91;5069935;28;20497;-48
2023/05/24 01:26:53;;;;;;;25.63;4.33;;;;;;;8.84;100.00;102489.31;5081413;28;20039;-46
2023/05/24 01:29:18;;;;;;;29.60;4.05;;;;;;;8.82;100.00;102478.72;5073412;28;20290;-47
2023/05/24 01:31:44;;;;;;;20.70;4.60;;;;;;;8.82;100.00;102470.66;5071292;28;20025;-46
2023/05/24 01:34:10;;;;;;;20.58;3.83;;;;;;;8.79;100.00;102476.28;5087825;28;20099;-49
2023/05/24 01:36:36;;;;;;;22.45;4.00;;;;;;;8.79;100.00;102473.59;5075478;28;20032;-45
2023/05/24 01:39:01;;;;;;;28.45;4.40;;;;;;;8.75;100.00;102469.47;5081368;28;20025;-46
2023/05/24 01:41:47;;;;;;;19.85;5.03;;;;;;;8.74;100.00;102463.25;5070510;28;20027;-45
2023/05/24 01:44:19;;;;;;;18.65;4.03;;;;;;;8.72;100.00;102464.38;5072855;28;20040;-47
2023/05/24 01:46:46;;;;;;;19.85;3.63;;;;;;;8.72;100.00;102464.38;5078903;28;20039;-47
2023/05/24 01:49:19;;;;;;;24.45;4.13;;;;;;;8.74;100.00;102457.91;5070290;28;20112;-46
2023/05/24 01:51:58;;;;;;;29.10;4.78;;;;;;;8.73;100.00;102456.19;5069333;28;20444;-50
2023/05/24 01:54:25;;;;;;;33.15;4.57;;;;;;;8.72;100.00;102453.63;5086532;28;20044;-46
2023/05/24 01:56:54;;;;;;;24.85;3.70;;;;;;;8.70;100.00;102447.53;5077423;28;20081;-47
2023/05/24 01:59:21;;;;;;;21.77;3.55;;;;;;;8.68;100.00;102457.56;5069988;28;20103;-47
2023/05/24 02:01:47;;;;;;;28.38;4.30;;;;;;;8.67;100.00;102455.84;5071177;28;20042;-46
2023/05/24 02:04:12;;;;;;;19.25;4.10;;;;;;;8.66;100.00;102449.66;5071845;28;20478;-43
2023/05/24 02:06:37;;;;;;;28.45;4.30;;;;;;;8.67;100.00;102454.03;5074398;28;20047;-45
2023/05/24 02:09:03;;;;;;;30.40;3.83;;;;;;;8.65;100.00;102447.94;5075286;28;20074;-46
2023/05/24 02:11:28;;;;;;;21.45;4.07;;;;;;;8.68;100.00;102457.56;5084353;28;20088;-45
2023/05/24 02:13:53;;;;;;;24.13;4.88;;;;;;;8.71;100.00;102457.28;5081836;28;20056;-47
2023/05/24 02:16:19;;;;;;;35.72;5.22;;;;;;;8.74;100.00;102454.34;5080833;28;20028;-45
2023/05/24 02:18:45;;;;;;;35.53;4.63;;;;;;;8.81;100.00;102457.38;5093947;28;20028;-47
2023/05/24 02:21:11;;;;;;;21.20;4.40;;;;;;;8.85;100.00;102453.44;5086284;28;20024;-46
2023/05/24 02:23:37;;;;;;;22.23;4.22;;;;;;;8.86;100.00;102441.72;5081917;28;20024;-44
2023/05/24 02:26:02;;;;;;;31.38;4.50;;;;;;;8.89;100.00;102450.34;5089822;28;20038;-46
2023/05/24 02:28:30;;;;;;;27.10;5.63;;;;;;;8.94;100.00;102452.66;5073674;28;20031;-45
2023/05/24 02:30:56;;;;;;;24.17;4.85;;;;;;;8.96;100.00;102453.38;5072598;28;20044;-45
2023/05/24 02:33:24;;;;;;;25.33;4.28;;;;;;;8.99;100.00;102450.41;5074836;28;20075;-48
2023/05/24 02:35:51;;;;;;;22.08;3.63;;;;;;;8.97;100.00;102453.22;5076069;28;20371;-45
2023/05/24 02:38:16;;;;;;;34.88;4.47;;;;;;;9.00;100.00;102447.63;5093325;28;20561;-45
2023/05/24 02:40:41;;;;;;;34.30;5.60;;;;;;;9.03;100.00;102449.19;5090993;28;20123;-46
2023/05/24 02:43:08;;;;;;;34.45;4.05;;;;;;;9.06;100.00;102450.72;5092429;28;20059;-46
2023/05/24 02:45:35;;;;;;;22.17;4.38;;;;;;;9.08;100.00;102451.44;5090078;28;20031;-45
2023/05/24 02:48:00;;;;;;;31.17;5.50;;;;;;;9.11;100.00;102460.13;5073448;28;20028;-46
2023/05/24 02:50:26;;;;;;;23.48;4.43;;;;;;;9.10;100.00;102463.75;5073591;28;20101;-46
2023/05/24 02:52:51;;;;;;;28.05;4.05;;;;;;;9.11;100.00;102460.13;5085214;28;20064;-47
2023/05/24 02:55:17;;;;;;;30.48;4.20;;;;;;;9.08;100.00;102459.50;5073324;28;20037;-48
2023/05/24 02:57:42;;;;;;;27.52;4.80;;;;;;;9.10;100.00;102453.03;5073647;28;20060;-47
2023/05/24 03:00:09;;;;;;;31.27;4.32;;;;;;;9.10;100.00;102458.38;5073162;28;20424;-49
2023/05/24 03:02:37;;;;;;;32.60;4.35;;;;;;;9.07;100.00;102452.44;5073388;28;20025;-43
2023/05/24 03:05:03;;;;;;;27.27;4.57;;;;;;;9.07;100.00;102452.44;5085851;28;20024;-47
2023/05/24 03:07:28;;;;;;;32.28;5.72;;;;;;;9.07;100.00;102453.28;5069653;28;20488;-51
2023/05/24 03:09:53;;;;;;;36.72;4.82;;;;;;;9.08;100.00;102460.34;5070841;28;20029;-46
2023/05/24 03:12:19;;;;;;;32.92;4.95;;;;;;;9.09;100.00;102453.16;5072767;28;20029;-47
2023/05/24 03:14:44;;;;;;;27.13;4.25;;;;;;;9.09;100.00;102450.50;5080870;28;20028;-49
2023/05/24 03:17:10;;;;;;;27.85;4.40;;;;;;;9.10;100.00;102463.75;5075435;28;20032;-49
2023/05/24 03:19:36;;;;;;;28.52;5.35;;;;;;;9.12;100.00;102450.22;5071898;28;20084;-46
2023/05/24 03:22:02;;;;;;;25.73;4.22;;;;;;;9.10;100.00;102452.19;5072854;28;20105;-47
2023/05/24 03:24:27;;;;;;;32.08;6.45;;;;;;;9.16;100.00;102451.63;5082389;28;20474;-43
2023/05/24 03:26:53;;;;;;;27.27;4.70;;;;;;;9.19;100.00;102454.94;5078991;28;20020;-46
2023/05/24 03:29:18;;;;;;;27.45;4.03;;;;;;;9.24;100.00;102449.13;5072976;28;20021;-45
2023/05/24 03:31:43;;;;;;;27.02;5.22;;;;;;;9.27;100.00;102439.94;5078044;28;20034;-44
2023/05/24 03:34:09;;;;;;;28.55;4.57;;;;;;;9.30;100.00;102437.88;5078601;28;20052;-48
2023/05/24 03:36:35;;;;;;;20.83;4.30;;;;;;;9.27;100.00;102438.13;5081558;28;20079;-45
2023/05/24 03:39:02;;;;;;;28.08;5.07;;;;;;;9.25;100.00;102434.72;5072702;28;20023;-46
2023/05/24 03:41:28;;;;;;;23.15;4.05;;;;;;;9.22;100.00;102443.06;5072271;28;20024;-48
2023/05/24 03:43:53;;;;;;;34.80;5.18;;;;;;;9.20;100.00;102442.34;5076066;28;20465;-46
2023/05/24 03:46:18;;;;;;;20.45;4.22;;;;;;;9.18;100.00;102444.28;5087659;28;20119;-46
2023/05/24 03:48:44;;;;;;;26.90;5.10;;;;;;;9.17;100.00;102446.13;5092468;28;20565;-45
2023/05/24 03:51:09;;;;;;;28.58;4.53;;;;;;;9.17;100.00;102450.66;5091078;28;20381;-46
2023/05/24 03:53:34;;;;;;;23.02;5.13;;;;;;;9.17;100.00;102442.59;5091921;28;20143;-48
2023/05/24 03:56:00;;;;;;;24.73;4.15;;;;;;;9.18;100.00;102445.16;5077977;28;20123;-47
2023/05/24 03:58:25;;;;;;;22.50;4.57;;;;;;;9.20;100.00;102453.94;5088740;28;20030;-47
2023/05/24 04:00:50;;;;;;;25.35;4.30;;;;;;;9.24;100.00;102454.50;5090307;28;20028;-46
2023/05/24 04:03:18;;;;;;;27.88;4.82;;;;;;;9.31;100.00;102450.31;5089788;28;20024;-49
2023/05/24 04:05:44;;;;;;;25.60;4.78;;;;;;;9.36;100.00;102453.44;5083214;28;20024;-46
2023/05/24 04:08:09;;;;;;;31.05;5.03;;;;;;;9.42;100.00;102447.50;5092034;28;20039;-46
2023/05/24 04:10:34;;;;;;;22.48;4.88;;;;;;;9.50;100.00;102448.69;5090439;28;20542;-45
2023/05/24 04:13:00;;;;;;;30.60;5.68;;;;;;;9.57;100.00;102445.31;5087754;28;20081;-45
2023/05/24 04:15:25;;;;;;;31.80;4.65;;;;;;;9.67;100.00;102453.44;5064004;28;20616;-45
2023/05/24 04:17:53;;;;;;;19.80;4.53;;;;;;;9.72;100.00;102458.41;5055369;28;20032;-46
2023/05/24 04:20:22;;;;;;;25.23;4.93;;;;;;;9.80;100.00;102461.25;5082556;28;20031;-47
2023/05/24 04:22:48;;;;;;;38.00;4.72;;;;;;;9.89;100.00;102463.09;5084508;28;20064;-47
2023/05/24 04:25:13;;;;;;;30.95;4.15;;;;;;;10.00;100.00;102462.13;5083041;28;20067;-47
2023/05/24 04:27:38;;;;;;;35.10;4.88;;;;;;;10.11;100.00;102459.34;5082229;28;20039;-46
2023/05/24 04:30:04;;;;;;;34.67;4.45;;;;;;;10.22;100.00;102451.13;5081513;28;20052;-45
2023/05/24 04:32:30;;;;;;;34.78;4.75;;;;;;;10.34;100.00;102459.94;5081444;28;20060;-46
2023/05/24 04:34:55;;;;;;;32.65;5.30;;;;;;;10.44;100.00;102454.56;5081234;28;20115;-46
2023/05/24 04:37:21;;;;;;;39.70;6.03;;;;;;;10.48;100.00;102456.00;5080432;28;20047;-48
2023/05/24 04:39:46;;;;;;;48.20;5.10;;;;;;;10.57;100.00;102457.84;5080441;28;20474;-46
2023/05/24 04:42:11;;;;;;;38.05;5.03;;;;;;;10.66;100.00;102459.66;5082115;28;20047;-47
2023/05/24 04:44:39;;;;;;;35.75;4.63;;;;;;;10.74;100.00;102454.44;5081039;28;20028;-47
2023/05/24 04:47:06;;;;;;;38.72;5.35;;;;;;;10.83;100.00;102443.78;5081776;28;20155;-46
2023/05/24 04:49:31;;;;;;;40.97;4.77;;;;;;;10.94;100.00;102449.00;5078927;28;20156;-48
2023/05/24 04:51:57;;;;;;;31.30;4.93;;;;;;;11.11;100.00;102450.97;5085150;28;20031;-46
2023/05/24 04:54:23;;;;;;;23.50;4.93;;;;;;;11.27;100.00;102441.38;5084852;28;20055;-46
2023/05/24 04:56:48;;;;;;;29.27;5.60;;;;;;;11.41;100.00;102443.63;5088242;28;20115;-49
2023/05/24 04:59:14;;;;;;;27.42;5.25;;;;;;;11.53;100.00;102434.34;5080517;28;20027;-47
2023/05/24 05:01:39;;;;;;;34.17;4.63;;;;;;;11.64;100.00;102434.13;5082054;28;20028;-48
2023/05/24 05:04:05;;;;;;;28.48;4.57;;;;;;;11.58;100.00;102428.47;5083698;28;20999;-48
2023/05/24 05:06:32;;;;;;;34.92;4.95;;;;;;;11.56;100.00;102430.50;5078841;28;20164;-45
2023/05/24 05:08:58;;;;;;;27.77;4.53;;;;;;;11.57;100.00;102426.78;5078625;28;20032;-47
2023/05/24 05:11:24;;;;;;;29.30;4.35;;;;;;;11.61;100.00;102430.88;5080079;28;20035;-48
2023/05/24 05:13:50;;;;;;;30.80;4.38;;;;;;;11.68;100.00;102434.69;5082988;28;20028;-48
2023/05/24 05:16:15;;;;;;;29.30;4.53;;;;;;;11.77;100.00;102424.81;5067275;28;20501;-48
2023/05/24 05:18:40;;;;;;;35.38;4.97;;;;;;;11.85;100.00;102431.19;5081443;28;20097;-49
2023/05/24 05:21:06;;;;;;;33.92;5.20;;;;;;;11.93;100.00;102433.16;5083198;28;20032;-44
2023/05/24 05:23:32;;;;;;;30.40;6.07;;;;;;;11.93;100.00;102427.75;5081377;28;20092;-47
2023/05/24 05:25:57;;;;;;;32.72;4.03;;;;;;;11.95;100.00;102428.44;5087146;28;20043;-50
2023/05/24 05:28:22;;;;;;;32.70;5.10;;;;;;;11.97;100.00;102429.13;5088506;28;20039;-48
2023/05/24 05:30:48;;;;;;;22.58;4.45;;;;;;;11.97;100.00;102434.53;5087219;28;20059;-46
2023/05/24 05:33:13;;;;;;;32.13;4.15;;;;;;;12.07;100.00;102443.41;5082753;28;20039;-47
2023/05/24 05:35:38;;;;;;;32.80;4.50;;;;;;;12.21;100.00;102441.19;5082750;28;20035;-46
2023/05/24 05:38:04;;;;;;;27.30;4.45;;;;;;;12.27;100.00;102438.72;5082837;28;20173;-45
2023/05/24 05:40:29;;;;;;;28.65;3.95;;;;;;;12.24;100.00;102438.19;5082734;28;20028;-44
2023/05/24 05:42:54;;;;;;;28.13;4.22;;;;;;;12.26;100.00;102441.56;5084926;28;20020;-49
2023/05/24 05:45:20;;;;;;;31.55;4.05;;;;;;;12.29;100.00;102436.69;5081716;28;20028;-50
2023/05/24 05:47:45;;;;;;;22.90;4.10;;;;;;;12.27;100.00;102444.13;5082814;28;20024;-47
2023/05/24 05:50:10;;;;;;;34.90;6.05;;;;;;;12.30;100.00;102445.69;5083777;28;20079;-46
2023/05/24 05:52:36;;;;;;;25.17;4.53;;;;;;;12.27;100.00;102440.59;5083909;28;20138;-48
2023/05/24 05:55:01;;;;;;;26.15;4.70;;;;;;;12.22;100.00;102442.91;5081860;28;20511;-47
2023/05/24 05:57:26;;;;;;;26.73;4.32;;;;;;;12.26;100.00;102446.97;5084361;28;20032;-45
2023/05/24 05:59:52;;;;;;;30.48;4.10;;;;;;;12.28;100.00;102448.53;5082061;28;20071;-47
2023/05/24 06:02:17;;;;;;;35.65;4.90;;;;;;;12.36;100.00;102446.91;5082052;28;20020;-47
2023/05/24 06:04:44;;;;;;;32.58;5.13;;;;;;;12.44;100.00;102441.56;5083549;28;20083;-47
2023/05/24 06:07:09;;;;;;;27.00;4.63;;;;;;;12.54;100.00;102441.50;5082635;28;20054;-49
2023/05/24 06:09:35;;;;;;;31.75;4.25;;;;;;;12.68;100.00;102433.66;5080314;28;20139;-51
2023/05/24 06:12:00;;;;;;;26.95;3.80;;;;;;;12.87;100.00;102439.88;5081477;28;20688;-49
2023/05/24 06:14:25;;;;;;;25.67;4.55;;;;;;;13.01;100.00;102435.78;5083112;28;20571;-45
2023/05/24 06:16:53;;;;;;;35.97;4.47;;;;;;;13.19;100.00;102439.25;5081959;28;20031;-48
2023/05/24 06:19:19;;;;;;;39.58;4.75;;;;;;;13.35;100.00;102438.56;5083702;28;20040;-48
2023/05/24 06:21:49;;;;;;;27.95;5.90;;;;;;;13.44;100.00;102428.59;5066850;28;20031;-51
2023/05/24 06:24:19;;;;;;;28.55;4.18;;;;;;;13.71;100.00;102433.78;5078467;28;20053;-47
2023/05/24 06:26:44;;;;;;;28.02;4.63;;;;;;;13.84;100.00;102439.56;5080788;28;20032;-48
2023/05/24 06:29:10;;;;;;;29.63;4.90;;;;;;;13.77;100.00;102430.44;5081452;28;20102;-48
2023/05/24 06:31:35;;;;;;;37.20;5.60;;;;;;;13.71;100.00;102430.22;5083305;28;20147;-49
2023/05/24 06:34:00;;;;;;;29.70;6.95;;;;;;;13.62;100.00;102432.06;5081900;28;20063;-49
2023/05/24 06:36:26;;;;;;;24.58;4.80;;;;;;;13.50;100.00;102433.34;5078966;28;20077;-48
2023/05/24 06:38:51;;;;;;;18.33;4.00;;;;;;;13.30;100.00;102436.31;5083775;28;20033;-48
2023/05/24 06:41:16;;;;;;;27.80;4.07;;;;;;;13.24;100.00;102439.63;5081525;28;20044;-50
2023/05/24 06:43:43;;;;;;;36.00;4.30;;;;;;;13.25;100.00;102435.91;5083642;28;20032;-49
2023/05/24 06:46:08;;;;;;;26.33;3.50;;;;;;;13.49;100.00;102426.28;5082166;28;20118;-49
2023/05/24 06:48:33;;;;;;;22.52;3.65;;;;;;;13.34;100.00;102426.84;5082711;28;20557;-45
2023/05/24 06:50:59;;;;;;;28.63;4.47;;;;;;;13.44;100.00;102434.84;5065928;28;20032;-45
2023/05/24 06:53:26;;;;;;;21.67;3.83;;;;;;;13.68;100.00;102434.09;5088231;28;20028;-45
2023/05/24 06:55:51;;;;;;;21.23;3.80;;;;;;;13.77;100.00;102441.25;5083403;28;20410;-46
2023/05/24 06:58:16;;;;;;;30.08;4.20;;;;;;;13.89;100.00;102432.84;5087722;28;20027;-46
2023/05/24 07:00:44;;;;;;;32.45;4.35;;;;;;;13.90;100.00;102432.69;5087646;28;20051;-45
2023/05/24 07:03:10;;;;;;;31.38;4.68;;;;;;;13.92;100.00;102446.03;5084857;28;20397;-46
2023/05/24 07:05:36;;;;;;;26.83;3.85;;;;;;;14.35;100.00;102438.66;5087777;28;20028;-45
2023/05/24 07:08:01;;;;;;;22.88;3.50;;;;;;;14.71;100.00;102434.63;5083551;28;20028;-46
2023/05/24 07:10:26;;;;;;;19.42;3.63;;;;;;;15.04;100.00;102429.19;5085096;28;20030;-47
2023/05/24 07:12:52;;;;;;;29.42;3.65;;;;;;;15.02;100.00;102431.22;5087396;28;20093;-46
2023/05/24 07:15:17;;;;;;;34.92;4.68;;;;;;;15.18;100.00;102441.19;5084715;28;20394;-46
2023/05/24 07:17:42;;;;;;;50.50;5.88;;;;;;;15.32;100.00;102439.59;5088702;28;20040;-47
2023/05/24 07:20:09;;;;;;;62.47;6.60;;;;;;;15.74;100.00;102441.16;5086968;28;20036;-48
2023/05/24 07:22:35;;;;;;;31.88;3.72;;;;;;;16.24;100.00;102445.28;5087366;28;20056;-47
2023/05/24 07:25:00;;;;;;;17.15;3.17;;;;;;;17.16;100.00;102437.03;5087739;28;20486;-47
2023/05/24 07:27:25;;;;;;;18.27;3.55;;;;;;;18.00;100.00;102444.84;5087009;28;20123;-48
2023/05/24 07:29:51;;;;;;;20.13;3.42;;;;;;;18.41;93.99;102444.25;5087736;28;20071;-47
2023/05/24 07:32:16;;;;;;;20.73;3.58;;;;;;;18.43;94.26;102445.75;5087725;28;20028;-47
2023/05/24 07:34:42;;;;;;;22.00;3.45;;;;;;;17.97;94.92;102450.69;5084359;28;20040;-47
2023/05/24 07:37:08;;;;;;;15.65;3.55;;;;;;;17.43;98.96;102445.56;5085789;28;20039;-44
2023/05/24 07:39:33;;;;;;;20.98;2.80;;;;;;;17.03;96.62;102453.16;5082026;28;20160;-48
2023/05/24 07:41:58;;;;;;;16.27;3.50;;;;;;;16.92;96.87;102450.88;5076228;28;20390;-48
2023/05/24 07:44:24;;;;;;;21.08;3.70;;;;;;;16.78;100.00;102447.97;5077983;28;20032;-47
2023/05/24 07:46:49;;;;;;;17.85;2.92;;;;;;;16.63;100.00;102444.31;5076722;28;20028;-47
2023/05/24 07:49:15;;;;;;;29.70;3.95;;;;;;;16.68;100.00;102445.44;5087207;28;21097;-48
2023/05/24 07:51:41;;;;;;;17.95;3.08;;;;;;;17.02;100.00;102451.47;5087610;28;20119;-46
2023/05/24 07:54:06;;;;;;;16.23;2.90;;;;;;;17.26;98.60;102444.91;5086761;28;20097;-49
2023/05/24 07:56:32;;;;;;;10.98;2.75;;;;;;;17.75;94.26;102445.16;5086822;28;20492;-47
2023/05/24 07:59:03;;;;;;;19.77;2.75;;;;;;;18.14;91.47;102452.16;5085119;28;20028;-46
2023/05/24 08:01:33;;;;;;;18.35;3.22;;;;;;;18.06;92.58;102454.13;5081527;28;20070;-47
2023/05/24 08:03:59;;;;;;;22.20;3.03;;;;;;;18.26;89.35;102457.09;5085947;28;20035;-48
2023/05/24 08:06:25;;;;;;;18.88;3.67;;;;;;;19.03;90.80;102457.16;5068524;28;20036;-47
2023/05/24 08:08:50;;;;;;;14.43;3.30;;;;;;;20.79;81.73;102456.59;5084553;28;20081;-48
2023/05/24 08:11:16;;;;;;;13.77;3.05;;;;;;;21.15;77.84;102460.78;5083925;28;20145;-49
2023/05/24 08:13:43;;;;;;;17.83;3.25;;;;;;;21.68;76.06;102450.53;5084892;28;20047;-48
2023/05/24 08:16:08;;;;;;;13.60;3.40;;;;;;;21.92;74.19;102459.06;5084435;28;20145;-48
2023/05/24 08:18:33;;;;;;;19.60;3.55;;;;;;;21.96;71.84;102451.25;5086140;28;20443;-48
2023/05/24 08:20:59;;;;;;;16.83;2.90;;;;;;;22.07;66.30;102448.66;5086083;28;20051;-47
2023/05/24 08:23:24;;;;;;;13.32;2.75;;;;;;;22.37;67.77;102450.00;5085889;28;20095;-45
2023/05/24 08:25:50;;;;;;;13.32;2.90;;;;;;;22.93;65.55;102447.22;5087403;28;20027;-47
2023/05/24 08:28:15;;;;;;;16.25;3.33;;;;;;;22.97;65.58;102445.72;5086622;28;20784;-45
2023/05/24 08:30:41;;;;;;;14.60;2.95;;;;;;;23.29;65.08;102459.34;5085617;28;20490;-47
2023/05/24 08:33:06;;;;;;;9.02;2.72;;;;;;;24.08;60.33;102449.28;5081975;28;20053;-46
2023/05/24 08:35:31;;;;;;;14.13;2.88;;;;;;;23.63;59.60;102446.88;5082639;28;20559;-45
2023/05/24 08:37:57;;;;;;;16.85;2.83;;;;;;;23.30;59.04;102451.94;5083186;28;20024;-48
2023/05/24 08:40:23;;;;;;;15.20;2.88;;;;;;;24.19;56.65;102449.56;5085298;28;20139;-49
2023/05/24 08:42:49;;;;;;;12.63;3.03;;;;;;;24.43;55.28;102450.44;5084027;28;20031;-46
2023/05/24 08:45:14;;;;;;;12.05;3.03;;;;;;;25.09;54.76;102454.00;5086303;28;20036;-49
2023/05/24 08:47:41;;;;;;;12.07;2.97;;;;;;;25.34;55.67;102451.03;5082227;28;20071;-48
2023/05/24 08:50:07;;;;;;;13.88;3.25;;;;;;;25.45;55.06;102452.94;5083705;28;20285;-49
2023/05/24 08:52:33;;;;;;;16.38;2.75;;;;;;;26.01;49.95;102456.00;5080487;28;20024;-47
2023/05/24 08:54:58;;;;;;;13.25;3.05;;;;;;;25.37;51.42;102456.06;5075646;28;20051;-50
2023/05/24 08:57:27;;;;;;;15.05;3.22;;;;;;;25.34;52.46;102451.88;5077746;28;20032;-48
2023/05/24 08:59:54;;;;;;;12.45;3.00;;;;;;;25.45;51.32;102460.38;5076270;28;20131;-47
2023/05/24 09:02:20;;;;;;;12.10;3.20;;;;;;;25.52;52.12;102461.09;5080903;28;20419;-47
2023/05/24 09:04:48;;;;;;;11.00;2.78;;;;;;;24.73;52.75;102462.28;5077354;28;20035;-51
2023/05/24 09:07:16;;;;;;;9.45;2.60;;;;;;;25.42;51.05;102452.59;5080633;28;20075;-47
2023/05/24 09:09:44;;;;;;;14.30;3.10;;;;;;;24.95;51.15;102457.00;5085039;28;20074;-52
2023/05/24 09:12:14;;;;;;;9.50;2.85;;;;;;;26.25;47.76;102445.69;5083806;28;20028;-49
2023/05/24 09:14:45;;;;;;;9.00;2.80;;;;;;;26.25;46.75;102446.56;5082066;28;20502;-49
2023/05/24 09:17:11;;;;;;;9.80;3.35;;;;;;;26.22;48.13;102454.47;5083632;28;20055;-48
2023/05/24 09:19:37;;;;;;;14.10;2.90;;;;;;;24.93;47.61;102455.56;5084046;28;20101;-45
2023/05/24 09:22:03;;;;;;;14.30;2.88;;;;;;;25.57;48.59;102448.25;5072581;28;20470;-49
2023/05/24 09:24:28;;;;;;;10.18;2.30;;;;;;;26.49;46.02;102447.25;5077227;28;20051;-47
2023/05/24 09:26:54;;;;;;;9.98;2.90;;;;;;;26.34;44.59;102446.16;5084140;28;20024;-47
2023/05/24 09:29:23;;;;;;;11.43;2.40;;;;;;;26.06;45.42;102451.44;5083415;28;20054;-47
2023/05/24 09:31:48;;;;;;;10.77;2.47;;;;;;;25.31;46.76;102454.28;5081737;28;20032;-46
2023/05/24 09:34:15;;;;;;;11.65;2.85;;;;;;;26.03;44.16;102445.56;5084635;28;20054;-46
2023/05/24 09:36:43;;;;;;;9.40;2.67;;;;;;;26.22;47.18;102447.03;5084635;28;20158;-47
2023/05/24 09:39:09;;;;;;;10.57;2.78;;;;;;;25.83;46.16;102448.75;5084340;28;20362;-46
2023/05/24 09:41:38;;;;;;;13.88;2.88;;;;;;;25.69;46.47;102447.34;5085845;28;20058;-47
2023/05/24 09:44:04;;;;;;;12.95;3.10;;;;;;;26.38;42.66;102439.03;5083680;28;20471;-46
2023/05/24 09:46:37;;;;;;;16.73;3.15;;;;;;;26.16;44.21;102430.66;5084284;28;20088;-46
2023/05/24 09:49:02;;;;;;;10.18;2.97;;;;;;;26.63;42.66;102439.50;5076837;28;20484;-45
2023/05/24 09:51:28;;;;;;;9.90;2.47;;;;;;;26.47;41.62;102432.84;5072343;28;20036;-47
2023/05/24 09:54:00;;;;;;;12.35;3.20;;;;;;;25.68;45.04;102434.66;5081766;28;20052;-48
2023/05/24 09:56:25;;;;;;;14.52;2.90;;;;;;;25.38;45.46;102435.69;5079550;28;20040;-48
2023/05/24 09:58:51;;;;;;;9.88;2.90;;;;;;;25.72;43.71;102430.31;5079038;28;20039;-48
2023/05/24 10:01:17;;;;;;;15.98;2.97;;;;;;;25.44;43.59;102433.91;5083484;28;20020;-47
2023/05/24 10:03:57;;;;;;;9.02;2.65;;;;;;;25.58;42.49;102433.34;5084218;28;20079;-48
2023/05/24 10:06:23;;;;;;;12.10;2.70;;;;;;;25.44;44.23;102423.69;5083933;28;20178;-50
2023/05/24 10:08:49;;;;;;;11.90;2.95;;;;;;;26.06;42.36;102421.06;5083244;28;20565;-49
2023/05/24 10:11:15;;;;;;;13.93;2.70;;;;;;;25.32;45.15;102422.88;5080909;28;20036;-49
2023/05/24 10:13:41;;;;;;;10.45;2.63;;;;;;;25.41;43.26;102418.69;5083384;28;20547;-48
2023/05/24 10:16:06;;;;;;;9.07;2.83;;;;;;;26.34;39.45;102424.06;5084732;28;20143;-49
2023/05/24 10:18:31;;;;;;;10.32;2.42;;;;;;;26.00;41.60;102419.31;5083249;28;20024;-46
2023/05/24 10:20:58;;;;;;;10.30;3.00;;;;;;;26.14;39.75;102421.78;5084847;28;20020;-46
2023/05/24 10:23:23;;;;;;;10.80;2.45;;;;;;;25.78;40.55;102418.31;5084724;28;20534;-47
2023/05/24 10:26:02;;;;;;;10.75;3.00;;;;;;;25.65;41.24;102418.63;5084600;28;20131;-51
2023/05/24 10:28:29;;;;;;;16.17;2.50;;;;;;;25.94;40.86;102423.06;5088152;28;20408;-47
2023/05/24 10:31:08;;;;;;;9.07;2.67;;;;;;;26.40;40.07;102421.13;5087798;28;20028;-47
2023/05/24 10:33:36;;;;;;;9.52;2.40;;;;;;;26.26;39.43;102419.78;5083938;28;20032;-46
2023/05/24 10:36:03;;;;;;;9.43;2.60;;;;;;;25.68;41.31;102423.63;5087147;28;20035;-47
2023/05/24 10:38:28;;;;;;;17.02;2.95;;;;;;;26.04;40.68;102423.28;5085181;28;20107;-45
2023/05/24 10:40:54;;;;;;;6.57;2.47;;;;;;;25.90;40.16;102429.31;5069893;28;20024;-45
2023/05/24 10:43:20;;;;;;;10.65;2.60;;;;;;;25.62;42.27;102423.53;5088889;28;20027;-45
2023/05/24 10:45:49;;;;;;;11.82;2.55;;;;;;;25.96;41.54;102428.31;5087876;28;20042;-51
2023/05/24 10:48:15;;;;;;;12.38;2.78;;;;;;;26.05;40.40;102429.63;5088678;28;20032;-44
2023/05/24 10:50:41;;;;;;;12.90;2.60;;;;;;;26.21;39.20;102422.47;5087887;28;20107;-44
2023/05/24 10:53:13;;;;;;;11.05;2.60;;;;;;;26.75;38.66;102427.50;5083599;28;20035;-46
2023/05/24 10:56:03;;;;;;;16.25;3.15;;;;;;;26.90;37.78;102425.81;5087961;28;20079;-44
2023/05/24 10:58:31;;;;;;;9.35;2.92;;;;;;;26.08;38.98;102429.13;5085063;28;20491;-46
2023/05/24 11:00:57;;;;;;;12.10;2.42;;;;;;;25.28;41.34;102435.47;5086889;28;20043;-46
2023/05/24 11:03:23;;;;;;;10.07;2.60;;;;;;;24.79;40.64;102426.59;5085888;28;20460;-47
2023/05/24 11:05:48;;;;;;;11.93;2.78;;;;;;;24.47;42.22;102429.69;5085223;28;20040;-47
2023/05/24 11:08:19;;;;;;;7.38;2.20;;;;;;;24.26;41.55;102429.13;5084529;28;20402;-46
2023/05/24 11:10:46;;;;;;;9.30;2.50;;;;;;;24.55;42.31;102440.34;5087759;28;20040;-46
2023/05/24 11:13:11;;;;;;;13.47;2.80;;;;;;;24.60;41.61;102437.72;5085137;28;20039;-47